createdAt,value
2018-03-04T10:54:11.575Z,986.6
2018-03-04T10:55:13.099Z,986.6
2018-03-04T10:56:34.642Z,986.7
2018-03-04T10:57:36.008Z,986.7
2018-03-04T10:59:00.010Z,986.8
2018-03-04T11:00:01.455Z,986.7
2018-03-04T11:01:02.821Z,986.7
2018-03-04T11:02:04.180Z,986.7
2018-03-04T11:03:05.565Z,986.8
2018-03-04T11:04:07.012Z,986.8
2018-03-04T11:05:08.404Z,986.8
2018-03-04T11:06:09.836Z,986.1
2018-03-04T11:07:11.196Z,987.0
2018-03-04T11:08:12.569Z,986.9
2018-03-04T11:09:13.939Z,987.2
2018-03-04T11:10:15.311Z,986.8
2018-03-04T11:11:16.681Z,986.8
2018-03-04T11:12:18.053Z,986.4
2018-03-04T11:13:19.426Z,986.9
2018-03-04T11:14:20.804Z,986.8
2018-03-04T11:15:22.231Z,986.9
2018-03-04T11:16:23.576Z,986.9
2018-03-04T11:17:24.961Z,986.9
2018-03-04T11:18:26.345Z,986.8
2018-03-04T11:19:27.723Z,986.4
2018-03-04T11:20:29.134Z,986.3
2018-03-04T11:21:30.469Z,986.6
2018-03-04T11:22:31.843Z,986.3
2018-03-04T11:23:33.907Z,986.1
2018-03-04T11:24:35.307Z,986.4
2018-03-04T11:25:36.686Z,986.3
2018-03-04T11:26:38.071Z,986.3
2018-03-04T11:27:39.446Z,986.2
2018-03-04T11:28:40.844Z,986.6
2018-03-04T11:29:42.191Z,986.8
2018-03-04T11:30:43.557Z,986.8
2018-03-04T11:31:44.924Z,986.3
2018-03-04T11:32:46.294Z,986.2
2018-03-04T11:33:47.681Z,986.2
2018-03-04T11:34:49.046Z,986.3
2018-03-04T11:35:50.412Z,986.3
2018-03-04T11:36:51.780Z,986.1
2018-03-04T11:37:53.189Z,986.3
2018-03-04T11:38:54.579Z,986.2
2018-03-04T11:39:55.945Z,986.1
2018-03-04T11:40:57.336Z,986.2
2018-03-04T11:41:58.726Z,986.2
2018-03-04T11:43:00.094Z,986.2
2018-03-04T11:44:01.466Z,986.3
2018-03-04T11:45:02.833Z,986.2
2018-03-04T11:46:04.207Z,986.0
2018-03-04T11:47:05.602Z,986.4
2018-03-04T11:48:06.971Z,986.2
2018-03-04T11:49:08.347Z,986.3
2018-03-04T11:50:09.715Z,986.2
2018-03-04T11:51:11.108Z,986.0
2018-03-04T11:52:12.477Z,986.0
2018-03-04T11:53:13.847Z,986.1
2018-03-04T11:54:15.220Z,986.1
2018-03-04T11:55:16.593Z,986.4
2018-03-04T11:56:17.964Z,986.3
2018-03-04T11:57:19.339Z,986.3
2018-03-04T11:58:20.749Z,986.2
2018-03-04T11:59:22.118Z,986.2
2018-03-04T12:00:23.544Z,986.2
2018-03-04T12:01:24.922Z,986.5
2018-03-04T12:02:26.300Z,986.1
2018-03-04T12:03:27.689Z,986.0
2018-03-04T12:04:29.072Z,986.2
2018-03-04T12:05:30.449Z,986.0
2018-03-04T12:06:31.817Z,986.1
2018-03-04T12:07:33.234Z,985.8
2018-03-04T12:08:34.600Z,985.9
2018-03-04T12:09:36.067Z,985.9
2018-03-04T12:10:37.404Z,985.8
2018-03-04T12:11:38.767Z,986.0
2018-03-04T12:12:40.160Z,985.9
2018-03-04T12:13:41.542Z,985.7
2018-03-04T12:14:42.940Z,985.6
2018-03-04T12:15:44.299Z,985.6
2018-03-04T12:16:45.676Z,985.6
2018-03-04T12:17:47.048Z,985.7
2018-03-04T12:18:48.430Z,985.6
2018-03-04T12:19:49.796Z,985.4
2018-03-04T12:20:51.173Z,985.4
2018-03-04T12:21:52.548Z,985.5
2018-03-04T12:22:53.931Z,985.6
2018-03-04T12:23:55.401Z,985.4
2018-03-04T12:24:56.741Z,985.4
2018-03-04T12:25:58.156Z,985.4
2018-03-04T12:26:59.527Z,985.4
2018-03-04T12:28:00.906Z,985.3
2018-03-04T12:29:02.290Z,985.4
2018-03-04T12:30:03.695Z,985.3
2018-03-04T12:31:05.128Z,985.3
2018-03-04T12:32:06.547Z,985.2
2018-03-04T12:33:07.929Z,985.2
2018-03-04T12:34:09.309Z,984.9
2018-03-04T12:35:10.680Z,985.0
2018-03-04T12:36:12.057Z,985.1
2018-03-04T12:37:13.423Z,985.0
2018-03-04T12:38:14.795Z,985.0
2018-03-04T12:39:16.182Z,985.1
2018-03-04T12:40:17.567Z,984.8
2018-03-04T12:41:18.940Z,985.0
2018-03-04T12:42:20.321Z,984.7
2018-03-04T12:43:21.697Z,984.8
2018-03-04T12:44:23.072Z,984.8
2018-03-04T12:45:24.457Z,984.8
2018-03-04T12:46:25.834Z,984.8
2018-03-04T12:47:27.259Z,984.6
2018-03-04T12:48:28.586Z,984.7
2018-03-04T12:49:29.952Z,984.8
2018-03-04T12:50:31.331Z,984.7
2018-03-04T12:51:32.711Z,984.4
2018-03-04T12:52:34.129Z,984.7
2018-03-04T12:53:35.530Z,984.7
2018-03-04T12:54:36.902Z,984.3
2018-03-04T12:55:38.267Z,984.5
2018-03-04T12:56:39.638Z,984.5
2018-03-04T12:57:41.026Z,984.6
2018-03-04T12:58:42.401Z,984.6
2018-03-04T12:59:43.776Z,984.4
2018-03-04T13:00:45.153Z,984.5
2018-03-04T13:01:46.529Z,984.4
2018-03-04T13:02:47.902Z,984.5
2018-03-04T13:03:49.293Z,984.6
2018-03-04T13:04:50.671Z,984.6
2018-03-04T13:05:52.049Z,984.3
2018-03-04T13:06:53.458Z,984.2
2018-03-04T13:07:54.795Z,984.1
2018-03-04T13:08:56.163Z,984.4
2018-03-04T13:09:57.535Z,984.4
2018-03-04T13:10:58.937Z,984.4
2018-03-04T13:12:00.307Z,984.4
2018-03-04T13:13:01.689Z,984.3
2018-03-04T13:14:03.726Z,984.3
2018-03-04T13:15:05.096Z,984.4
2018-03-04T13:16:06.480Z,984.4
2018-03-04T13:17:07.859Z,984.2
2018-03-04T13:18:09.231Z,984.2
2018-03-04T13:19:11.466Z,984.2
2018-03-04T13:20:12.841Z,984.3
2018-03-04T13:21:14.213Z,984.2
2018-03-04T13:22:15.581Z,984.2
2018-03-04T13:23:16.959Z,984.1
2018-03-04T13:24:18.324Z,984.1
2018-03-04T13:25:19.698Z,984.2
2018-03-04T13:26:21.071Z,984.1
2018-03-04T13:27:22.436Z,984.1
2018-03-04T13:28:23.802Z,984.2
2018-03-04T13:29:25.168Z,984.2
2018-03-04T13:30:26.540Z,984.1
2018-03-04T13:31:27.915Z,984.1
2018-03-04T13:32:29.285Z,984.2
2018-03-04T13:33:30.652Z,984.2
2018-03-04T13:34:32.016Z,984.3
2018-03-04T13:35:33.435Z,984.2
2018-03-04T13:36:34.810Z,984.2
2018-03-04T13:37:36.178Z,984.2
2018-03-04T13:38:37.585Z,984.1
2018-03-04T13:39:38.961Z,984.1
2018-03-04T13:40:40.402Z,983.9
2018-03-04T13:41:41.742Z,983.9
2018-03-04T13:42:43.115Z,983.9
2018-03-04T13:43:44.520Z,983.8
2018-03-04T13:44:45.862Z,983.8
2018-03-04T13:45:47.227Z,983.7
2018-03-04T13:46:48.607Z,983.7
2018-03-04T13:47:49.969Z,983.9
2018-03-04T13:48:51.361Z,983.9
2018-03-04T13:49:52.730Z,983.8
2018-03-04T13:50:54.096Z,983.8
2018-03-04T13:51:55.490Z,983.9
2018-03-04T13:52:56.850Z,984.0
2018-03-04T13:53:58.209Z,984.0
2018-03-04T13:54:59.617Z,984.0
2018-03-04T13:56:00.957Z,984.0
2018-03-04T13:57:02.340Z,984.0
2018-03-04T13:58:03.760Z,983.9
2018-03-04T13:59:05.141Z,983.9
2018-03-04T14:00:06.512Z,983.9
2018-03-04T14:01:07.873Z,983.8
2018-03-04T14:02:09.242Z,983.8
2018-03-04T14:03:10.603Z,983.7
2018-03-04T14:04:11.972Z,983.8
2018-03-04T14:05:13.347Z,983.7
2018-03-04T14:06:14.724Z,983.7
2018-03-04T14:07:16.082Z,983.6
2018-03-04T14:08:17.461Z,983.7
2018-03-04T14:09:18.819Z,983.7
2018-03-04T14:10:20.235Z,983.7
2018-03-04T14:11:21.594Z,983.6
2018-03-04T14:12:22.973Z,983.5
2018-03-04T14:13:24.344Z,983.6
2018-03-04T14:14:25.717Z,983.6
2018-03-04T14:15:27.086Z,983.6
2018-03-04T14:16:28.525Z,983.5
2018-03-04T14:17:29.821Z,983.6
2018-03-04T14:18:31.195Z,983.5
2018-03-04T14:19:32.571Z,983.6
2018-03-04T14:20:34.074Z,983.6
2018-03-04T14:21:35.452Z,983.5
2018-03-04T14:22:36.899Z,983.5
2018-03-04T14:23:38.273Z,983.5
2018-03-04T14:24:39.651Z,983.5
2018-03-04T14:25:41.011Z,983.5
2018-03-04T14:26:42.379Z,983.5
2018-03-04T14:27:43.744Z,983.5
2018-03-04T14:28:45.116Z,983.4
2018-03-04T14:29:46.483Z,983.4
2018-03-04T14:30:47.849Z,983.5
2018-03-04T14:31:49.218Z,983.4
2018-03-04T14:32:50.584Z,983.4
2018-03-04T14:33:51.957Z,983.4
2018-03-04T14:34:53.332Z,983.4
2018-03-04T14:35:54.704Z,983.3
2018-03-04T14:36:56.087Z,983.4
2018-03-04T14:37:57.438Z,983.3
2018-03-04T14:38:58.814Z,983.2
2018-03-04T14:40:01.301Z,983.2
2018-03-04T14:41:02.676Z,983.1
2018-03-04T14:42:04.069Z,983.0
2018-03-04T14:43:05.462Z,983.1
2018-03-04T14:44:06.821Z,983.0
2018-03-04T14:45:08.191Z,983.0
2018-03-04T14:46:09.600Z,982.9
2018-03-04T14:47:10.921Z,982.9
2018-03-04T14:48:12.305Z,982.9
2018-03-04T14:49:13.676Z,983.0
2018-03-04T14:50:15.052Z,982.9
2018-03-04T14:51:16.414Z,983.0
2018-03-04T14:52:17.774Z,983.0
2018-03-04T14:53:19.139Z,983.0
2018-03-04T14:54:20.508Z,983.1
2018-03-04T14:55:21.881Z,983.1
2018-03-04T14:56:23.239Z,983.0
2018-03-04T14:57:24.609Z,983.1
2018-03-04T14:58:25.979Z,983.1
2018-03-04T14:59:27.342Z,983.0
2018-03-04T15:00:28.712Z,983.1
2018-03-04T15:01:30.083Z,983.0
2018-03-04T15:02:31.469Z,983.0
2018-03-04T15:03:32.838Z,983.1
2018-03-04T15:04:34.215Z,983.1
2018-03-04T15:05:35.630Z,983.0
2018-03-04T15:06:37.003Z,983.0
2018-03-04T15:07:38.420Z,983.0
2018-03-04T15:08:39.785Z,983.0
2018-03-04T15:09:41.207Z,983.0
2018-03-04T15:10:42.518Z,983.0
2018-03-04T15:11:43.886Z,983.0
2018-03-04T15:12:45.246Z,983.0
2018-03-04T15:13:46.603Z,983.0
2018-03-04T15:14:47.971Z,983.0
2018-03-04T15:15:49.329Z,983.0
2018-03-04T15:16:50.716Z,983.0
2018-03-04T15:17:52.162Z,983.0
2018-03-04T15:18:53.684Z,983.0
2018-03-04T15:19:55.077Z,983.0
2018-03-04T15:20:56.531Z,982.9
2018-03-04T15:21:57.891Z,983.0
2018-03-04T15:22:59.274Z,983.1
2018-03-04T15:24:00.633Z,983.1
2018-03-04T15:25:02.007Z,983.1
2018-03-04T15:26:03.916Z,983.1
2018-03-04T15:27:05.282Z,983.2
2018-03-04T15:28:06.682Z,983.2
2018-03-04T15:29:08.062Z,983.2
2018-03-04T15:30:09.433Z,983.2
2018-03-04T15:31:10.793Z,983.2
2018-03-04T15:32:12.166Z,983.3
2018-03-04T15:33:13.530Z,983.2
2018-03-04T15:34:14.893Z,983.2
2018-03-04T15:35:16.252Z,983.1
2018-03-04T15:36:17.621Z,983.2
2018-03-04T15:37:18.990Z,983.2
2018-03-04T15:38:20.354Z,983.2
2018-03-04T15:39:21.724Z,983.1
2018-03-04T15:40:23.113Z,983.0
2018-03-04T15:41:24.520Z,983.0
2018-03-04T15:42:25.883Z,983.0
2018-03-04T15:43:27.387Z,982.9
2018-03-04T15:44:28.762Z,983.0
2018-03-04T15:45:30.125Z,983.0
2018-03-04T15:46:31.487Z,982.9
2018-03-04T15:47:32.847Z,982.9
2018-03-04T15:48:34.215Z,982.9
2018-03-04T15:49:35.584Z,982.8
2018-03-04T15:50:36.943Z,982.8
2018-03-04T15:51:38.311Z,982.8
2018-03-04T15:52:39.705Z,982.8
2018-03-04T15:53:41.073Z,982.7
2018-03-04T15:54:42.466Z,982.8
2018-03-04T15:55:43.809Z,982.7
2018-03-04T15:56:45.236Z,982.7
2018-03-04T15:57:46.546Z,982.7
2018-03-04T15:58:47.901Z,982.7
2018-03-04T15:59:49.268Z,982.7
2018-03-04T16:00:50.629Z,982.7
2018-03-04T16:01:51.983Z,982.6
2018-03-04T16:02:53.341Z,982.7
2018-03-04T16:03:54.735Z,982.7
2018-03-04T16:04:56.603Z,982.7
2018-03-04T16:05:57.984Z,982.7
2018-03-04T16:06:59.350Z,982.6
2018-03-04T16:08:00.709Z,982.7
2018-03-04T16:09:02.081Z,982.6
2018-03-04T16:10:04.050Z,982.7
2018-03-04T16:11:06.341Z,982.6
2018-03-04T16:12:08.380Z,982.5
2018-03-04T16:13:10.340Z,982.6
2018-03-04T16:14:12.718Z,982.5
2018-03-04T16:15:14.862Z,982.4
2018-03-04T16:16:16.839Z,982.5
2018-03-04T16:17:18.732Z,982.4
2018-03-04T16:18:20.974Z,982.4
2018-03-04T16:19:22.342Z,982.4
2018-03-04T16:20:23.705Z,982.5
2018-03-04T16:21:25.848Z,982.4
2018-03-04T16:22:27.847Z,982.3
2018-03-04T16:23:29.759Z,982.4
2018-03-04T16:24:32.056Z,982.3
2018-03-04T16:25:34.071Z,982.3
2018-03-04T16:26:36.011Z,982.3
2018-03-04T16:27:38.318Z,982.3
2018-03-04T16:28:40.425Z,982.3
2018-03-04T16:29:42.454Z,982.4
2018-03-04T16:30:44.379Z,982.3
2018-03-04T16:31:45.747Z,982.3
2018-03-04T16:32:47.131Z,982.2
2018-03-04T16:33:49.092Z,982.3
2018-03-04T16:34:51.278Z,982.3
2018-03-04T16:35:51.814Z,982.3
2018-03-04T16:36:53.268Z,982.2
2018-03-04T16:37:54.586Z,982.2
2018-03-04T16:38:55.955Z,982.3
2018-03-04T16:39:57.959Z,982.3
2018-03-04T16:40:59.326Z,982.3
2018-03-04T16:42:00.692Z,982.3
2018-03-04T16:43:02.768Z,982.3
2018-03-04T16:44:04.700Z,982.3
2018-03-04T16:45:06.997Z,982.4
2018-03-04T16:46:09.120Z,982.3
2018-03-04T16:47:11.101Z,982.3
2018-03-04T16:48:13.403Z,982.3
2018-03-04T16:49:15.531Z,982.4
2018-03-04T16:50:17.483Z,982.3
2018-03-04T16:51:19.783Z,982.3
2018-03-04T16:52:20.226Z,982.4
2018-03-04T16:53:22.214Z,982.3
2018-03-04T16:54:23.579Z,982.3
2018-03-04T16:55:24.935Z,982.3
2018-03-04T16:56:26.943Z,982.3
2018-03-04T16:57:28.875Z,982.3
2018-03-04T16:58:30.227Z,982.2
2018-03-04T16:59:31.592Z,982.2
2018-03-04T17:00:34.819Z,982.2
2018-03-04T17:01:35.522Z,982.1
2018-03-04T17:02:37.719Z,982.0
2018-03-04T17:03:39.786Z,982.1
2018-03-04T17:04:41.665Z,982.1
2018-03-04T17:05:43.835Z,981.9
2018-03-04T17:06:45.956Z,982.1
2018-03-04T17:07:47.929Z,982.1
2018-03-04T17:08:49.296Z,982.1
2018-03-04T17:09:50.716Z,982.1
2018-03-04T17:10:52.713Z,982.1
2018-03-04T17:11:55.049Z,982.1
2018-03-04T17:12:57.267Z,982.1
2018-03-04T17:13:59.315Z,982.0
2018-03-04T17:15:01.222Z,982.0
2018-03-04T17:16:02.647Z,981.9
2018-03-04T17:17:04.041Z,982.0
2018-03-04T17:18:05.453Z,982.0
2018-03-04T17:19:06.815Z,982.1
2018-03-04T17:20:08.173Z,982.1
2018-03-04T17:21:10.405Z,982.0
2018-03-04T17:22:11.756Z,982.0
2018-03-04T17:23:13.114Z,982.0
2018-03-04T17:24:14.494Z,982.0
2018-03-04T17:25:15.850Z,982.0
2018-03-04T17:26:17.204Z,982.0
2018-03-04T17:27:18.555Z,982.0
2018-03-04T17:28:19.951Z,982.1
2018-03-04T17:29:21.300Z,982.1
2018-03-04T17:30:22.669Z,982.1
2018-03-04T17:31:24.017Z,982.0
2018-03-04T17:32:25.393Z,982.1
2018-03-04T17:33:26.750Z,982.1
2018-03-04T17:34:28.098Z,982.1
2018-03-04T17:35:29.456Z,982.1
2018-03-04T17:36:30.801Z,982.1
2018-03-04T17:37:32.250Z,982.1
2018-03-04T17:38:33.518Z,982.1
2018-03-04T17:39:34.892Z,982.1
2018-03-04T17:40:36.240Z,982.2
2018-03-04T17:41:37.600Z,982.1
2018-03-04T17:42:38.949Z,982.2
2018-03-04T17:43:40.317Z,982.2
2018-03-04T17:44:41.690Z,982.2
2018-03-04T17:45:43.125Z,982.2
2018-03-04T17:46:44.478Z,982.2
2018-03-04T17:47:45.842Z,982.2
2018-03-04T17:48:47.205Z,982.3
2018-03-04T17:49:48.550Z,982.3
2018-03-04T17:50:49.943Z,982.3
2018-03-04T17:51:51.270Z,982.2
2018-03-04T17:52:52.635Z,982.3
2018-03-04T17:53:53.994Z,982.2
2018-03-04T17:54:55.344Z,982.3
2018-03-04T17:55:56.696Z,982.3
2018-03-04T17:56:58.045Z,982.4
2018-03-04T17:57:59.389Z,982.3
2018-03-04T17:59:00.753Z,982.3
2018-03-04T18:00:02.109Z,982.2
2018-03-04T18:01:03.491Z,982.4
2018-03-04T18:02:04.854Z,982.3
2018-03-04T18:03:06.233Z,982.3
2018-03-04T18:04:07.590Z,982.2
2018-03-04T18:05:08.933Z,982.3
2018-03-04T18:06:10.299Z,982.3
2018-03-04T18:07:11.645Z,982.3
2018-03-04T18:08:13.017Z,982.3
2018-03-04T18:09:14.360Z,982.3
2018-03-04T18:10:15.709Z,982.3
2018-03-04T18:11:17.060Z,982.2
2018-03-04T18:12:18.419Z,982.2
2018-03-04T18:13:19.770Z,982.3
2018-03-04T18:14:21.179Z,982.1
2018-03-04T18:15:22.507Z,982.1
2018-03-04T18:16:23.879Z,982.2
2018-03-04T18:17:25.233Z,982.2
2018-03-04T18:18:26.589Z,982.2
2018-03-04T18:19:27.941Z,982.2
2018-03-04T18:20:29.306Z,982.1
2018-03-04T18:21:30.694Z,982.1
2018-03-04T18:22:32.054Z,982.1
2018-03-04T18:23:33.439Z,982.2
2018-03-04T18:24:34.809Z,982.2
2018-03-04T18:25:36.185Z,982.2
2018-03-04T18:26:37.543Z,982.1
2018-03-04T18:27:38.892Z,982.2
2018-03-04T18:28:40.254Z,982.2
2018-03-04T18:29:41.612Z,982.2
2018-03-04T18:30:42.967Z,982.2
2018-03-04T18:31:44.322Z,982.2
2018-03-04T18:32:45.666Z,982.2
2018-03-04T18:33:47.536Z,982.2
2018-03-04T18:34:48.883Z,982.2
2018-03-04T18:35:50.240Z,982.2
2018-03-04T18:36:51.656Z,982.1
2018-03-04T18:37:53.021Z,982.2
2018-03-04T18:38:54.369Z,982.1
2018-03-04T18:39:55.748Z,982.1
2018-03-04T18:40:57.103Z,982.1
2018-03-04T18:41:58.474Z,982.1
2018-03-04T18:42:59.840Z,982.2
2018-03-04T18:44:01.196Z,982.2
2018-03-04T18:45:02.555Z,982.1
2018-03-04T18:46:03.955Z,982.1
2018-03-04T18:47:05.308Z,982.1
2018-03-04T18:48:06.675Z,982.2
2018-03-04T18:49:08.076Z,982.2
2018-03-04T18:50:09.429Z,982.3
2018-03-04T18:51:10.811Z,982.2
2018-03-04T18:52:12.168Z,982.2
2018-03-04T18:53:14.144Z,982.2
2018-03-04T18:54:16.472Z,982.3
2018-03-04T18:55:18.659Z,982.1
2018-03-04T18:56:20.686Z,982.3
2018-03-04T18:57:22.586Z,982.2
2018-03-04T18:58:24.859Z,982.2
2018-03-04T18:59:25.294Z,982.2
2018-03-04T19:00:27.214Z,982.2
2018-03-04T19:01:29.510Z,982.2
2018-03-04T19:02:31.604Z,982.2
2018-03-04T19:03:33.567Z,982.2
2018-03-04T19:04:35.861Z,982.2
2018-03-04T19:05:36.286Z,982.2
2018-03-04T19:06:38.287Z,982.3
2018-03-04T19:07:40.647Z,982.1
2018-03-04T19:08:42.834Z,982.3
2018-03-04T19:09:44.864Z,982.2
2018-03-04T19:10:46.216Z,982.2
2018-03-04T19:11:47.596Z,982.2
2018-03-04T19:12:49.681Z,982.2
2018-03-04T19:13:51.522Z,982.1
2018-03-04T19:14:53.784Z,982.1
2018-03-04T19:15:55.897Z,982.1
2018-03-04T19:16:57.875Z,982.2
2018-03-04T19:18:00.190Z,982.3
2018-03-04T19:19:02.360Z,982.2
2018-03-04T19:20:05.107Z,982.3
2018-03-04T19:21:06.462Z,982.3
2018-03-04T19:22:08.687Z,982.3
2018-03-04T19:23:10.035Z,982.3
2018-03-04T19:24:11.386Z,982.3
2018-03-04T19:25:12.739Z,982.3
2018-03-04T19:26:14.093Z,982.4
2018-03-04T19:27:15.453Z,982.4
2018-03-04T19:28:16.828Z,982.2
2018-03-04T19:29:18.178Z,982.4
2018-03-04T19:30:19.532Z,982.4
2018-03-04T19:31:20.884Z,982.4
2018-03-04T19:32:22.235Z,982.3
2018-03-04T19:33:23.595Z,982.4
2018-03-04T19:34:24.996Z,982.3
2018-03-04T19:35:26.280Z,982.4
2018-03-04T19:36:27.662Z,982.4
2018-03-04T19:37:29.040Z,982.4
2018-03-04T19:38:30.414Z,982.5
2018-03-04T19:39:31.784Z,982.4
2018-03-04T19:40:33.159Z,982.5
2018-03-04T19:41:34.510Z,982.3
2018-03-04T19:42:35.902Z,982.4
2018-03-04T19:43:37.210Z,982.3
2018-03-04T19:44:38.574Z,982.3
2018-03-04T19:45:39.931Z,982.3
2018-03-04T19:46:41.300Z,982.4
2018-03-04T19:47:42.693Z,982.4
2018-03-04T19:48:44.048Z,982.4
2018-03-04T19:49:45.424Z,982.4
2018-03-04T19:50:46.773Z,982.5
2018-03-04T19:51:48.146Z,982.5
2018-03-04T19:52:49.542Z,982.6
2018-03-04T19:53:50.915Z,982.5
2018-03-04T19:54:52.284Z,982.5
2018-03-04T19:55:53.680Z,982.7
2018-03-04T19:56:55.035Z,982.6
2018-03-04T19:57:56.387Z,982.6
2018-03-04T19:58:57.784Z,982.6
2018-03-04T19:59:59.097Z,982.6
2018-03-04T20:01:00.456Z,982.6
2018-03-04T20:02:01.811Z,982.6
2018-03-04T20:03:03.222Z,982.6
2018-03-04T20:04:04.610Z,982.6
2018-03-04T20:05:05.969Z,982.7
2018-03-04T20:06:07.353Z,982.7
2018-03-04T20:07:09.624Z,982.8
2018-03-04T20:08:12.928Z,982.9
2018-03-04T20:09:14.287Z,982.8
2018-03-04T20:10:16.653Z,982.9
2018-03-04T20:11:18.028Z,982.9
2018-03-04T20:12:19.383Z,982.9
2018-03-04T20:13:21.674Z,982.9
2018-03-04T20:14:23.078Z,983.0
2018-03-04T20:15:25.436Z,982.9
2018-03-04T20:16:26.810Z,983.1
2018-03-04T20:17:28.168Z,983.1
2018-03-04T20:18:29.584Z,983.0
2018-03-04T20:19:30.976Z,983.1
2018-03-04T20:20:32.343Z,983.1
2018-03-04T20:21:33.736Z,983.1
2018-03-04T20:22:35.675Z,983.1
2018-03-04T20:23:37.034Z,983.2
2018-03-04T20:24:39.209Z,983.2
2018-03-04T20:25:40.585Z,983.2
2018-03-04T20:26:42.617Z,983.3
2018-03-04T20:27:44.009Z,983.2
2018-03-04T20:28:46.176Z,983.3
2018-03-04T20:29:47.969Z,983.4
2018-03-04T20:30:49.403Z,983.4
2018-03-04T20:31:50.910Z,983.5
2018-03-04T20:32:52.242Z,983.5
2018-03-04T20:33:53.590Z,983.4
2018-03-04T20:34:54.980Z,983.5
2018-03-04T20:35:56.324Z,983.5
2018-03-04T20:36:57.721Z,983.5
2018-03-04T20:37:59.112Z,983.5
2018-03-04T20:39:00.484Z,983.6
2018-03-04T20:40:01.862Z,983.6
2018-03-04T20:41:04.064Z,983.6
2018-03-04T20:42:05.421Z,983.7
2018-03-04T20:43:06.785Z,983.6
2018-03-04T20:44:08.159Z,983.6
2018-03-04T20:45:09.540Z,983.6
2018-03-04T20:46:10.887Z,983.5
2018-03-04T20:47:12.244Z,983.6
2018-03-04T20:48:13.623Z,983.7
2018-03-04T20:49:14.961Z,983.6
2018-03-04T20:50:16.368Z,983.6
2018-03-04T20:51:17.689Z,983.6
2018-03-04T20:52:19.072Z,983.7
2018-03-04T20:53:20.429Z,983.7
2018-03-04T20:54:21.780Z,983.7
2018-03-04T20:55:23.135Z,983.7
2018-03-04T20:56:24.495Z,983.6
2018-03-04T20:57:25.843Z,983.6
2018-03-04T20:58:27.204Z,983.6
2018-03-04T20:59:28.563Z,983.7
2018-03-04T21:00:29.919Z,983.7
2018-03-04T21:01:31.301Z,983.7
2018-03-04T21:02:32.656Z,983.7
2018-03-04T21:03:34.035Z,983.7
2018-03-04T21:04:35.391Z,983.7
2018-03-04T21:05:36.745Z,983.7
2018-03-04T21:06:38.110Z,983.8
2018-03-04T21:07:39.456Z,983.8
2018-03-04T21:08:40.831Z,983.9
2018-03-04T21:09:42.180Z,983.9
2018-03-04T21:10:43.573Z,983.9
2018-03-04T21:11:44.925Z,984.0
2018-03-04T21:12:46.285Z,984.0
2018-03-04T21:13:47.658Z,984.1
2018-03-04T21:14:49.012Z,984.1
2018-03-04T21:15:50.368Z,984.1
2018-03-04T21:16:51.750Z,984.0
2018-03-04T21:17:53.097Z,984.1
2018-03-04T21:18:54.456Z,984.1
2018-03-04T21:19:55.818Z,984.1
2018-03-04T21:20:57.176Z,984.1
2018-03-04T21:21:58.526Z,984.1
2018-03-04T21:22:59.908Z,984.1
2018-03-04T21:24:01.263Z,984.1
2018-03-04T21:25:02.624Z,984.1
2018-03-04T21:26:04.024Z,984.1
2018-03-04T21:27:05.387Z,984.2
2018-03-04T21:28:06.732Z,984.2
2018-03-04T21:29:08.089Z,984.2
2018-03-04T21:30:09.443Z,984.2
2018-03-04T21:31:10.813Z,984.2
2018-03-04T21:32:12.161Z,984.2
2018-03-04T21:33:13.524Z,984.2
2018-03-04T21:34:14.879Z,984.3
2018-03-04T21:35:16.247Z,984.3
2018-03-04T21:36:17.627Z,984.3
2018-03-04T21:37:18.923Z,984.3
2018-03-04T21:38:20.298Z,984.3
2018-03-04T21:39:21.648Z,984.3
2018-03-04T21:40:22.992Z,984.4
2018-03-04T21:41:24.359Z,984.4
2018-03-04T21:42:25.707Z,984.4
2018-03-04T21:43:27.048Z,984.5
2018-03-04T21:44:28.416Z,984.6
2018-03-04T21:45:29.771Z,984.5
2018-03-04T21:46:31.127Z,984.5
2018-03-04T21:47:32.484Z,984.5
2018-03-04T21:48:33.878Z,984.6
2018-03-04T21:49:35.238Z,984.5
2018-03-04T21:50:36.594Z,984.7
2018-03-04T21:51:37.945Z,984.6
2018-03-04T21:52:39.331Z,984.7
2018-03-04T21:53:40.705Z,984.7
2018-03-04T21:54:42.058Z,984.7
2018-03-04T21:55:43.455Z,984.7
2018-03-04T21:56:44.767Z,984.7
2018-03-04T21:57:46.117Z,984.6
2018-03-04T21:58:47.465Z,984.7
2018-03-04T21:59:48.822Z,984.8
2018-03-04T22:00:50.175Z,984.7
2018-03-04T22:01:51.525Z,984.7
2018-03-04T22:02:52.879Z,984.8
2018-03-04T22:03:54.224Z,984.8
2018-03-04T22:04:55.587Z,984.8
2018-03-04T22:05:56.941Z,984.8
2018-03-04T22:06:58.297Z,984.8
2018-03-04T22:07:59.638Z,984.8
2018-03-04T22:09:00.994Z,984.8
2018-03-04T22:10:02.344Z,984.8
2018-03-04T22:11:03.740Z,984.7
2018-03-04T22:12:05.103Z,984.7
2018-03-04T22:13:06.453Z,984.7
2018-03-04T22:14:07.814Z,984.6
2018-03-04T22:15:09.164Z,984.6
2018-03-04T22:16:10.522Z,984.6
2018-03-04T22:17:11.879Z,984.6
2018-03-04T22:18:13.238Z,984.7
2018-03-04T22:19:14.589Z,984.7
2018-03-04T22:20:15.945Z,984.7
2018-03-04T22:21:17.286Z,984.7
2018-03-04T22:22:18.638Z,984.7
2018-03-04T22:23:19.986Z,984.7
2018-03-04T22:24:21.334Z,984.7
2018-03-04T22:25:22.687Z,984.7
2018-03-04T22:26:24.050Z,984.8
2018-03-04T22:27:25.430Z,984.8
2018-03-04T22:28:26.791Z,984.8
2018-03-04T22:29:28.147Z,984.9
2018-03-04T22:30:29.497Z,985.0
2018-03-04T22:31:31.006Z,985.0
2018-03-04T22:32:32.862Z,985.1
2018-03-04T22:33:34.227Z,985.1
2018-03-04T22:34:35.581Z,985.2
2018-03-04T22:35:36.928Z,985.1
2018-03-04T22:36:38.286Z,985.1
2018-03-04T22:37:39.627Z,985.1
2018-03-04T22:38:40.986Z,985.2
2018-03-04T22:39:42.342Z,985.1
2018-03-04T22:40:43.701Z,985.1
2018-03-04T22:41:45.054Z,985.2
2018-03-04T22:42:46.408Z,985.2
2018-03-04T22:43:47.788Z,985.3
2018-03-04T22:44:49.132Z,985.2
2018-03-04T22:45:50.487Z,985.2
2018-03-04T22:46:51.840Z,985.3
2018-03-04T22:47:53.215Z,985.3
2018-03-04T22:48:54.562Z,985.4
2018-03-04T22:49:55.912Z,985.4
2018-03-04T22:50:57.262Z,985.4
2018-03-04T22:51:58.617Z,985.4
2018-03-04T22:52:59.962Z,985.5
2018-03-04T22:54:01.317Z,985.5
2018-03-04T22:55:02.678Z,985.5
2018-03-04T22:56:04.067Z,985.5
2018-03-04T22:57:05.424Z,985.5
2018-03-04T22:58:06.777Z,985.4
2018-03-04T22:59:08.134Z,985.4
2018-03-04T23:00:09.486Z,985.5
2018-03-04T23:01:10.862Z,985.5
2018-03-04T23:02:12.207Z,985.5
2018-03-04T23:03:14.294Z,985.6
2018-03-04T23:04:15.637Z,985.6
2018-03-04T23:05:16.989Z,985.6
2018-03-04T23:06:18.334Z,985.6
2018-03-04T23:07:19.736Z,985.6
2018-03-04T23:08:21.031Z,985.6
2018-03-04T23:09:22.386Z,985.6
2018-03-04T23:10:23.742Z,985.7
2018-03-04T23:11:25.090Z,985.7
2018-03-04T23:12:26.445Z,985.7
2018-03-04T23:13:27.801Z,985.7
2018-03-04T23:14:29.154Z,985.7
2018-03-04T23:15:30.508Z,985.7
2018-03-04T23:16:31.857Z,985.6
2018-03-04T23:17:33.240Z,985.6
2018-03-04T23:18:34.582Z,985.6
2018-03-04T23:19:35.954Z,985.6
2018-03-04T23:20:37.303Z,985.7
2018-03-04T23:21:38.658Z,985.7
2018-03-04T23:22:40.019Z,985.7
2018-03-04T23:23:41.374Z,985.7
2018-03-04T23:24:42.735Z,985.8
2018-03-04T23:25:44.079Z,985.8
2018-03-04T23:26:45.425Z,985.9
2018-03-04T23:27:46.777Z,985.9
2018-03-04T23:28:48.126Z,985.9
2018-03-04T23:29:49.472Z,985.8
2018-03-04T23:30:50.822Z,985.8
2018-03-04T23:31:52.183Z,985.8
2018-03-04T23:32:53.528Z,985.8
2018-03-04T23:33:54.880Z,985.8
2018-03-04T23:34:56.233Z,985.9
2018-03-04T23:35:57.596Z,985.9
2018-03-04T23:36:58.951Z,985.9
2018-03-04T23:38:00.303Z,985.9
2018-03-04T23:39:01.649Z,986.0
2018-03-04T23:40:03.001Z,986.0
2018-03-04T23:41:04.463Z,986.0
2018-03-04T23:42:05.807Z,986.0
2018-03-04T23:43:07.171Z,986.0
2018-03-04T23:44:08.519Z,985.9
2018-03-04T23:45:09.860Z,986.0
2018-03-04T23:46:11.219Z,986.0
2018-03-04T23:47:12.562Z,986.0
2018-03-04T23:48:13.916Z,986.0
2018-03-04T23:49:15.261Z,986.0
2018-03-04T23:50:16.630Z,986.0
2018-03-04T23:51:17.974Z,986.0
2018-03-04T23:52:19.320Z,985.9
2018-03-04T23:53:20.673Z,986.0
2018-03-04T23:54:22.026Z,986.0
2018-03-04T23:55:23.366Z,985.9
2018-03-04T23:56:24.724Z,986.0
2018-03-04T23:57:26.066Z,986.0
2018-03-04T23:58:27.422Z,986.0
2018-03-04T23:59:28.776Z,986.0
